createdAt,value
2018-08-07T00:02:10.425Z,21.00
2018-08-07T00:04:38.665Z,20.90
2018-08-07T00:07:06.985Z,21.00
2018-08-07T00:09:35.192Z,20.90
2018-08-07T00:12:03.463Z,21.00
2018-08-07T00:14:31.677Z,21.00
2018-08-07T00:16:59.957Z,20.90
2018-08-07T00:19:28.171Z,20.80
2018-08-07T00:21:56.392Z,20.80
2018-08-07T00:24:24.698Z,20.70
2018-08-07T00:26:53.007Z,20.80
2018-08-07T00:29:21.266Z,20.70
2018-08-07T00:31:49.478Z,20.70
2018-08-07T00:34:17.755Z,20.60
2018-08-07T00:36:46.014Z,20.40
2018-08-07T00:39:14.243Z,20.30
2018-08-07T00:41:42.465Z,20.30
2018-08-07T00:44:10.664Z,20.30
2018-08-07T00:46:38.899Z,20.30
2018-08-07T00:49:07.091Z,20.20
2018-08-07T00:51:35.266Z,20.10
2018-08-07T00:54:04.556Z,20.00
2018-08-07T00:56:32.795Z,20.00
2018-08-07T00:59:00.986Z,20.00
2018-08-07T01:01:29.197Z,20.00
2018-08-07T01:03:58.545Z,19.90
2018-08-07T01:06:26.746Z,19.80
2018-08-07T01:08:54.952Z,19.80
2018-08-07T01:11:23.148Z,19.90
2018-08-07T01:13:51.421Z,19.90
2018-08-07T01:16:26.218Z,19.80
2018-08-07T01:18:54.497Z,19.80
2018-08-07T01:21:22.700Z,19.80
2018-08-07T01:23:52.133Z,19.80
2018-08-07T01:26:20.325Z,19.70
2018-08-07T01:28:48.549Z,19.70
2018-08-07T01:31:16.787Z,19.80
2018-08-07T01:33:45.198Z,19.90
2018-08-07T01:36:13.435Z,20.00
2018-08-07T01:38:41.621Z,20.00
2018-08-07T01:41:16.480Z,19.90
2018-08-07T01:43:44.809Z,19.80
2018-08-07T01:46:12.999Z,19.80
2018-08-07T01:48:41.220Z,19.70
2018-08-07T01:51:09.433Z,19.70
2018-08-07T01:53:37.596Z,19.50
2018-08-07T01:56:05.860Z,19.50
2018-08-07T01:58:34.083Z,19.50
2018-08-07T02:01:02.270Z,19.50
2018-08-07T02:03:30.676Z,19.60
2018-08-07T02:05:59.494Z,19.60
2018-08-07T02:08:27.783Z,19.60
2018-08-07T02:10:56.058Z,19.70
2018-08-07T02:13:24.337Z,19.60
2018-08-07T02:15:52.540Z,19.60
2018-08-07T02:18:20.704Z,19.60
2018-08-07T02:20:48.893Z,19.60
2018-08-07T02:23:17.097Z,19.60
2018-08-07T02:25:45.290Z,19.50
2018-08-07T02:28:13.455Z,19.50
2018-08-07T02:30:41.702Z,19.60
2018-08-07T02:33:09.898Z,19.60
2018-08-07T02:35:38.231Z,19.60
2018-08-07T02:38:06.464Z,19.60
2018-08-07T02:40:34.715Z,19.60
2018-08-07T02:43:02.876Z,19.60
2018-08-07T02:45:32.163Z,19.60
2018-08-07T02:48:00.386Z,19.60
2018-08-07T02:50:28.678Z,19.60
2018-08-07T02:52:56.894Z,19.60
2018-08-07T02:55:25.228Z,19.60
2018-08-07T02:57:53.498Z,19.60
2018-08-07T03:00:22.631Z,19.60
2018-08-07T03:02:50.946Z,19.60
2018-08-07T03:05:20.140Z,19.50
2018-08-07T03:07:48.483Z,19.50
2018-08-07T03:10:16.679Z,19.40
2018-08-07T03:12:44.850Z,19.30
2018-08-07T03:15:19.952Z,19.20
2018-08-07T03:17:48.727Z,19.20
2018-08-07T03:20:17.463Z,19.20
2018-08-07T03:22:45.777Z,19.20
2018-08-07T03:25:15.569Z,19.30
2018-08-07T03:27:44.673Z,19.30
2018-08-07T03:30:15.463Z,19.30
2018-08-07T03:32:44.048Z,19.30
2018-08-07T03:35:13.326Z,19.20
2018-08-07T03:37:41.832Z,19.20
2018-08-07T03:40:14.942Z,19.20
2018-08-07T03:42:43.367Z,19.30
2018-08-07T03:45:13.087Z,19.30
2018-08-07T03:47:41.478Z,19.30
2018-08-07T03:50:10.373Z,19.30
2018-08-07T03:52:38.599Z,19.30
2018-08-07T03:55:11.014Z,19.30
2018-08-07T03:57:39.501Z,19.20
2018-08-07T04:00:10.175Z,19.20
2018-08-07T04:02:38.365Z,19.20
2018-08-07T04:05:07.705Z,19.20
2018-08-07T04:07:36.152Z,19.20
2018-08-07T04:10:05.121Z,19.10
2018-08-07T04:12:33.324Z,19.10
2018-08-07T04:15:01.576Z,19.10
2018-08-07T04:17:29.777Z,19.20
2018-08-07T04:19:57.944Z,19.20
2018-08-07T04:22:26.127Z,19.30
2018-08-07T04:25:09.183Z,19.30
2018-08-07T04:27:37.496Z,19.30
2018-08-07T04:30:08.552Z,19.30
2018-08-07T04:32:36.778Z,19.40
2018-08-07T04:35:05.339Z,19.40
2018-08-07T04:37:33.565Z,19.40
2018-08-07T04:40:01.728Z,19.40
2018-08-07T04:42:30.747Z,19.40
2018-08-07T04:44:59.078Z,19.30
2018-08-07T04:47:27.294Z,19.30
2018-08-07T04:49:55.474Z,19.40
2018-08-07T04:52:23.646Z,19.40
2018-08-07T04:54:52.039Z,19.40
2018-08-07T04:57:20.295Z,19.40
2018-08-07T04:59:48.515Z,19.40
2018-08-07T05:02:16.804Z,19.30
2018-08-07T05:04:45.039Z,19.30
2018-08-07T05:07:13.172Z,19.30
2018-08-07T05:09:41.348Z,19.20
2018-08-07T05:12:09.518Z,19.20
2018-08-07T05:14:37.735Z,19.20
2018-08-07T05:17:05.859Z,19.30
2018-08-07T05:19:33.985Z,19.40
2018-08-07T05:22:02.112Z,19.50
2018-08-07T05:24:30.420Z,19.60
2018-08-07T05:26:58.567Z,19.80
2018-08-07T05:29:26.731Z,19.80
2018-08-07T05:31:54.857Z,19.90
2018-08-07T05:34:24.184Z,20.10
2018-08-07T05:36:52.314Z,20.20
2018-08-07T05:39:20.474Z,20.30
2018-08-07T05:41:48.609Z,20.50
2018-08-07T05:44:16.808Z,20.50
2018-08-07T05:46:44.929Z,20.70
2018-08-07T05:49:13.122Z,20.80
2018-08-07T05:51:41.213Z,20.80
2018-08-07T05:54:09.387Z,20.90
2018-08-07T05:56:37.584Z,21.00
2018-08-07T05:59:05.988Z,21.10
2018-08-07T06:01:34.392Z,21.20
2018-08-07T06:04:02.604Z,21.30
2018-08-07T06:06:30.740Z,21.20
2018-08-07T06:08:58.926Z,21.20
2018-08-07T06:11:27.083Z,21.20
2018-08-07T06:13:55.292Z,21.20
2018-08-07T06:16:23.585Z,21.10
2018-08-07T06:18:51.731Z,21.00
2018-08-07T06:21:19.880Z,20.90
2018-08-07T06:23:48.037Z,20.80
2018-08-07T06:26:16.185Z,20.80
2018-08-07T06:28:44.372Z,20.80
2018-08-07T06:31:12.458Z,20.80
2018-08-07T06:33:40.625Z,20.70
2018-08-07T06:36:08.771Z,20.70
2018-08-07T06:38:36.868Z,20.80
2018-08-07T06:41:04.995Z,21.00
2018-08-07T06:43:33.173Z,21.20
2018-08-07T06:46:01.300Z,21.40
2018-08-07T06:48:29.425Z,21.50
2018-08-07T06:50:57.561Z,21.70
2018-08-07T06:53:25.815Z,21.80
2018-08-07T06:55:53.937Z,21.90
2018-08-07T06:58:22.083Z,22.00
2018-08-07T07:03:24.706Z,22.20
2018-08-07T07:05:52.811Z,22.30
2018-08-07T07:08:20.912Z,22.40
2018-08-07T07:10:49.013Z,22.50
2018-08-07T07:13:17.204Z,22.60
2018-08-07T07:15:45.290Z,22.70
2018-08-07T07:18:13.392Z,22.80
2018-08-07T07:20:41.568Z,22.90
2018-08-07T07:23:09.643Z,23.00
2018-08-07T07:25:37.938Z,23.10
2018-08-07T07:28:06.138Z,23.20
2018-08-07T07:30:34.298Z,23.30
2018-08-07T07:33:02.407Z,23.30
2018-08-07T07:35:30.646Z,23.40
2018-08-07T07:37:58.791Z,23.60
2018-08-07T07:40:26.938Z,23.60
2018-08-07T07:42:55.066Z,23.60
2018-08-07T07:45:23.339Z,23.70
2018-08-07T07:47:51.509Z,23.80
2018-08-07T07:50:20.761Z,23.80
2018-08-07T07:52:48.868Z,23.90
2018-08-07T07:55:17.589Z,24.00
2018-08-07T07:57:58.566Z,24.20
2018-08-07T08:00:27.761Z,24.30
2018-08-07T08:02:55.929Z,24.40
2018-08-07T08:05:25.101Z,24.40
2018-08-07T08:07:53.641Z,24.60
2018-08-07T08:10:21.853Z,24.60
2018-08-07T08:12:50.084Z,24.70
2018-08-07T08:15:18.789Z,24.80
2018-08-07T08:17:47.958Z,24.80
2018-08-07T08:20:19.258Z,24.90
2018-08-07T08:22:48.059Z,25.00
2018-08-07T08:25:16.366Z,25.10
2018-08-07T08:27:44.687Z,25.20
2018-08-07T08:30:14.140Z,25.20
2018-08-07T08:32:42.700Z,25.20
2018-08-07T08:35:12.708Z,25.30
2018-08-07T08:37:41.327Z,25.50
2018-08-07T08:40:12.397Z,25.60
2018-08-07T08:42:41.061Z,25.70
2018-08-07T08:45:12.646Z,25.80
2018-08-07T08:47:41.393Z,25.90
2018-08-07T08:50:11.817Z,26.00
2018-08-07T08:52:40.248Z,26.20
2018-08-07T08:55:08.948Z,26.20
2018-08-07T08:57:37.200Z,26.20
2018-08-07T09:00:09.278Z,26.40
2018-08-07T09:02:37.450Z,26.60
2018-08-07T09:05:07.206Z,26.70
2018-08-07T09:07:35.430Z,26.80
2018-08-07T09:10:04.507Z,26.90
2018-08-07T09:12:32.702Z,27.00
2018-08-07T09:15:01.130Z,27.20
2018-08-07T09:17:29.337Z,27.40
2018-08-07T09:19:57.573Z,27.50
2018-08-07T09:22:25.840Z,27.50
2018-08-07T09:24:54.093Z,27.60
2018-08-07T09:27:22.283Z,27.70
2018-08-07T09:29:50.551Z,27.80
2018-08-07T09:32:18.747Z,27.80
2018-08-07T09:34:47.003Z,28.00
2018-08-07T09:37:15.182Z,28.00
2018-08-07T09:39:43.419Z,28.20
2018-08-07T09:42:11.556Z,28.30
2018-08-07T09:44:39.780Z,28.30
2018-08-07T09:47:07.968Z,28.20
2018-08-07T09:52:39.051Z,28.30
2018-08-07T09:55:08.163Z,28.20
2018-08-07T09:57:36.397Z,28.20
2018-08-07T10:00:10.368Z,28.30
2018-08-07T10:02:43.848Z,28.30
2018-08-07T10:05:12.267Z,28.40
2018-08-07T10:07:40.499Z,28.40
2018-08-07T10:10:08.699Z,28.40
2018-08-07T10:12:37.489Z,28.40
2018-08-07T10:15:06.729Z,28.40
2018-08-07T10:17:34.936Z,28.50
2018-08-07T10:20:03.189Z,28.80
2018-08-07T10:22:31.380Z,28.80
2018-08-07T10:24:59.656Z,28.80
2018-08-07T10:27:27.864Z,28.80
2018-08-07T10:29:56.105Z,28.90
2018-08-07T10:32:24.353Z,29.00
2018-08-07T10:34:52.758Z,28.90
2018-08-07T10:37:20.984Z,28.90
2018-08-07T10:39:49.193Z,28.80
2018-08-07T10:42:17.420Z,28.80
2018-08-07T10:44:45.826Z,28.80
2018-08-07T10:47:14.004Z,28.90
2018-08-07T10:49:42.184Z,28.90
2018-08-07T10:52:10.477Z,28.90
2018-08-07T10:54:39.088Z,28.70
2018-08-07T10:57:07.278Z,28.60
2018-08-07T10:59:35.528Z,28.60
2018-08-07T11:02:03.718Z,28.70
2018-08-07T11:04:32.392Z,28.70
2018-08-07T11:07:00.634Z,28.80
2018-08-07T11:09:28.870Z,28.80
2018-08-07T11:11:57.077Z,28.70
2018-08-07T11:14:25.301Z,28.70
2018-08-07T11:16:53.453Z,28.70
2018-08-07T11:19:21.702Z,28.70
2018-08-07T11:21:49.950Z,28.70
2018-08-07T11:24:18.263Z,28.60
2018-08-07T11:27:21.840Z,28.60
2018-08-07T11:29:50.127Z,28.60
2018-08-07T11:32:18.394Z,28.60
2018-08-07T11:34:47.803Z,28.70
2018-08-07T11:37:15.984Z,28.80
2018-08-07T11:39:44.247Z,28.80
2018-08-07T11:42:12.540Z,28.90
2018-08-07T11:44:40.931Z,28.90
2018-08-07T11:47:10.194Z,28.90
2018-08-07T11:49:38.573Z,28.90
2018-08-07T11:52:07.130Z,29.00
2018-08-07T11:54:35.450Z,29.10
2018-08-07T11:57:03.893Z,29.10
2018-08-07T11:59:32.140Z,29.10
2018-08-07T12:02:00.611Z,29.20
2018-08-07T12:04:28.992Z,29.20
2018-08-07T12:10:00.018Z,29.20
2018-08-07T12:12:28.332Z,29.20
2018-08-07T12:14:56.697Z,29.10
2018-08-07T12:17:25.000Z,29.30
2018-08-07T12:19:53.563Z,29.40
2018-08-07T12:22:21.824Z,29.40
2018-08-07T12:24:50.154Z,29.40
2018-08-07T12:27:18.322Z,29.50
2018-08-07T12:29:46.474Z,29.50
2018-08-07T12:32:14.704Z,29.60
2018-08-07T12:34:43.018Z,29.70
2018-08-07T12:37:11.291Z,29.70
2018-08-07T12:39:39.516Z,29.80
2018-08-07T12:42:07.816Z,29.90
2018-08-07T12:44:36.219Z,30.00
2018-08-07T12:49:46.226Z,30.20
2018-08-07T12:52:14.566Z,30.20
2018-08-07T12:54:43.022Z,30.20
2018-08-07T12:57:11.425Z,30.30
2018-08-07T12:59:39.791Z,30.30
2018-08-07T13:02:08.099Z,30.40
2018-08-07T13:04:36.600Z,30.40
2018-08-07T13:07:04.985Z,30.40
2018-08-07T13:09:33.355Z,30.50
2018-08-07T13:12:01.622Z,30.50
2018-08-07T13:17:30.214Z,30.50
2018-08-07T13:19:58.339Z,30.60
2018-08-07T13:22:26.670Z,30.50
2018-08-07T13:24:55.060Z,30.50
2018-08-07T13:27:23.382Z,30.40
2018-08-07T13:29:51.720Z,30.50
2018-08-07T13:32:19.967Z,30.50
2018-08-07T13:34:49.359Z,30.60
2018-08-07T13:37:17.758Z,30.60
2018-08-07T13:39:46.120Z,30.70
2018-08-07T13:42:14.370Z,30.80
2018-08-07T13:44:43.744Z,30.70
2018-08-07T13:47:12.068Z,30.90
2018-08-07T13:49:40.323Z,30.90
2018-08-07T13:52:08.553Z,30.90
2018-08-07T13:54:36.746Z,31.00
2018-08-07T13:57:05.198Z,30.90
2018-08-07T13:59:33.519Z,30.90
2018-08-07T14:02:01.871Z,30.90
2018-08-07T14:04:30.420Z,31.00
2018-08-07T14:06:58.722Z,31.00
2018-08-07T14:09:27.045Z,31.00
2018-08-07T14:11:55.365Z,31.00
2018-08-07T14:14:23.951Z,31.10
2018-08-07T14:16:52.210Z,31.20
2018-08-07T14:19:20.475Z,31.10
2018-08-07T14:21:48.855Z,31.30
2018-08-07T14:24:18.153Z,31.20
2018-08-07T14:26:46.786Z,31.20
2018-08-07T14:29:15.098Z,31.20
2018-08-07T14:31:43.371Z,31.20
2018-08-07T14:34:11.758Z,31.30
2018-08-07T14:36:40.216Z,31.40
2018-08-07T14:39:09.801Z,31.40
2018-08-07T14:41:38.205Z,31.40
2018-08-07T14:44:06.855Z,31.30
2018-08-07T14:46:35.347Z,31.30
2018-08-07T14:49:03.559Z,31.30
2018-08-07T14:51:31.920Z,31.30
2018-08-07T14:54:00.532Z,31.30
2018-08-07T14:56:28.810Z,31.30
2018-08-07T14:58:57.096Z,31.30
2018-08-07T15:01:25.491Z,31.30
2018-08-07T15:03:54.536Z,31.50
2018-08-07T15:06:22.988Z,31.50
2018-08-07T15:08:51.261Z,31.30
2018-08-07T15:11:19.670Z,31.20
2018-08-07T15:13:48.056Z,31.10
2018-08-07T15:16:16.335Z,31.10
2018-08-07T15:18:44.715Z,31.00
2018-08-07T15:21:12.986Z,31.00
2018-08-07T15:23:41.393Z,30.90
2018-08-07T15:26:09.762Z,30.80
2018-08-07T15:31:38.276Z,30.80
2018-08-07T15:34:06.887Z,30.90
2018-08-07T15:36:35.174Z,30.90
2018-08-07T15:39:04.323Z,30.90
2018-08-07T15:41:32.640Z,30.80
2018-08-07T15:44:01.116Z,30.70
2018-08-07T15:46:29.451Z,30.60
2018-08-07T15:48:57.761Z,30.50
2018-08-07T15:51:26.138Z,30.50
2018-08-07T15:53:54.612Z,30.40
2018-08-07T15:56:22.925Z,30.50
2018-08-07T15:58:51.352Z,30.70
2018-08-07T16:01:19.817Z,30.80
2018-08-07T16:03:48.356Z,30.90
2018-08-07T16:06:16.691Z,30.90
2018-08-07T16:08:45.030Z,30.90
2018-08-07T16:11:13.365Z,30.90
2018-08-07T16:13:41.873Z,30.80
2018-08-07T16:16:10.184Z,30.80
2018-08-07T16:18:38.560Z,30.80
2018-08-07T16:21:06.852Z,30.80
2018-08-07T16:23:35.387Z,30.90
2018-08-07T16:26:04.011Z,30.90
2018-08-07T16:28:32.335Z,30.80
2018-08-07T16:31:00.682Z,30.90
2018-08-07T16:33:29.043Z,30.90
2018-08-07T16:35:57.353Z,30.90
2018-08-07T16:38:25.681Z,30.80
2018-08-07T16:40:54.272Z,30.70
2018-08-07T16:43:22.556Z,30.70
2018-08-07T16:45:50.845Z,30.70
2018-08-07T16:48:19.147Z,30.70
2018-08-07T16:50:47.463Z,30.70
2018-08-07T16:53:15.879Z,30.70
2018-08-07T16:55:44.226Z,30.60
2018-08-07T16:58:12.465Z,30.60
2018-08-07T17:00:40.778Z,30.50
2018-08-07T17:03:09.033Z,30.50
2018-08-07T17:05:37.434Z,30.50
2018-08-07T17:08:05.783Z,30.50
2018-08-07T17:10:34.104Z,30.50
2018-08-07T17:13:02.381Z,30.40
2018-08-07T17:15:30.788Z,30.40
2018-08-07T17:17:59.076Z,30.40
2018-08-07T17:20:27.367Z,30.30
2018-08-07T17:22:55.678Z,30.30
2018-08-07T17:25:24.665Z,30.30
2018-08-07T17:27:53.057Z,30.20
2018-08-07T17:30:23.142Z,30.20
2018-08-07T17:32:51.580Z,30.10
2018-08-07T17:35:22.356Z,30.10
2018-08-07T17:37:52.310Z,30.10
2018-08-07T17:40:21.824Z,30.00
2018-08-07T17:42:50.306Z,30.00
2018-08-07T17:45:18.694Z,30.00
2018-08-07T17:47:47.073Z,30.00
2018-08-07T17:50:20.706Z,29.90
2018-08-07T17:52:49.120Z,29.90
2018-08-07T17:55:17.709Z,29.90
2018-08-07T17:57:46.513Z,29.90
2018-08-07T18:00:17.146Z,29.90
2018-08-07T18:02:45.774Z,29.90
2018-08-07T18:05:14.252Z,29.90
2018-08-07T18:07:44.390Z,29.80
2018-08-07T18:10:13.378Z,29.90
2018-08-07T18:12:41.750Z,29.80
2018-08-07T18:15:12.360Z,29.80
2018-08-07T18:17:41.004Z,29.80
2018-08-07T18:20:11.125Z,29.80
2018-08-07T18:22:40.261Z,29.80
2018-08-07T18:25:09.598Z,29.80
2018-08-07T18:27:37.990Z,29.70
2018-08-07T18:30:09.232Z,29.80
2018-08-07T18:32:38.122Z,29.70
2018-08-07T18:35:06.884Z,29.70
2018-08-07T18:37:35.359Z,29.70
2018-08-07T18:40:04.433Z,29.60
2018-08-07T18:45:31.184Z,29.50
2018-08-07T18:47:59.519Z,29.40
2018-08-07T18:50:27.869Z,29.30
2018-08-07T18:52:56.129Z,29.30
2018-08-07T18:55:24.669Z,29.20
2018-08-07T18:57:52.977Z,29.20
2018-08-07T19:00:23.831Z,29.20
2018-08-07T19:02:52.350Z,29.10
2018-08-07T19:05:22.246Z,29.00
2018-08-07T19:07:50.546Z,28.90
2018-08-07T19:10:19.160Z,28.90
2018-08-07T19:12:48.808Z,28.80
2018-08-07T19:15:18.116Z,28.80
2018-08-07T19:17:46.531Z,28.70
2018-08-07T19:20:19.713Z,28.70
2018-08-07T19:22:48.245Z,28.70
2018-08-07T19:25:16.700Z,28.70
2018-08-07T19:27:45.035Z,28.60
2018-08-07T19:30:16.049Z,28.60
2018-08-07T19:32:44.390Z,28.60
2018-08-07T19:35:14.150Z,28.60
2018-08-07T19:37:42.623Z,28.50
2018-08-07T19:40:14.516Z,28.50
2018-08-07T19:42:43.202Z,28.50
2018-08-07T19:45:13.059Z,28.40
2018-08-07T19:47:41.885Z,28.50
2018-08-07T19:50:11.404Z,28.50
2018-08-07T19:52:40.084Z,28.50
2018-08-07T19:55:13.708Z,28.40
2018-08-07T19:57:42.117Z,28.50
2018-08-07T20:00:13.531Z,28.40
2018-08-07T20:02:42.003Z,28.40
2018-08-07T20:05:10.524Z,28.40
2018-08-07T20:07:38.848Z,28.40
2018-08-07T20:10:08.910Z,28.30
2018-08-07T20:12:37.248Z,28.30
2018-08-07T20:15:08.340Z,28.30
2018-08-07T20:17:36.752Z,28.20
2018-08-07T20:20:06.143Z,28.20
2018-08-07T20:22:34.567Z,28.10
2018-08-07T20:25:03.057Z,28.10
2018-08-07T20:27:31.503Z,28.00
2018-08-07T20:29:59.908Z,28.00
2018-08-07T20:32:28.245Z,28.00
2018-08-07T20:34:56.645Z,28.00
2018-08-07T20:37:24.995Z,28.00
2018-08-07T20:39:53.940Z,27.90
2018-08-07T20:42:22.642Z,27.90
2018-08-07T20:44:51.177Z,27.90
2018-08-07T20:47:19.625Z,27.90
2018-08-07T20:49:47.892Z,27.80
2018-08-07T20:52:16.305Z,27.80
2018-08-07T20:54:44.620Z,27.80
2018-08-07T20:57:13.009Z,27.80
2018-08-07T20:59:41.426Z,27.80
2018-08-07T21:02:09.864Z,27.80
2018-08-07T21:04:38.304Z,27.80
2018-08-07T21:07:06.680Z,27.80
2018-08-07T21:09:35.029Z,27.80
2018-08-07T21:12:03.406Z,27.70
2018-08-07T21:14:31.890Z,27.70
2018-08-07T21:17:00.231Z,27.60
2018-08-07T21:19:28.603Z,27.60
2018-08-07T21:21:56.944Z,27.60
2018-08-07T21:24:26.424Z,27.60
2018-08-07T21:26:54.759Z,27.60
2018-08-07T21:29:23.165Z,27.60
2018-08-07T21:31:51.552Z,27.60
2018-08-07T21:34:19.853Z,27.60
2018-08-07T21:36:48.199Z,27.60
2018-08-07T21:39:16.514Z,27.60
2018-08-07T21:41:44.760Z,27.50
2018-08-07T21:44:13.207Z,27.50
2018-08-07T21:46:41.621Z,27.50
2018-08-07T21:49:09.937Z,27.50
2018-08-07T21:51:38.312Z,27.50
2018-08-07T21:54:06.801Z,27.50
2018-08-07T21:56:35.141Z,27.40
2018-08-07T21:59:03.561Z,27.40
2018-08-07T22:01:31.914Z,27.50
2018-08-07T22:04:01.612Z,27.50
2018-08-07T22:06:29.950Z,27.50
2018-08-07T22:08:58.333Z,27.50
2018-08-07T22:11:26.657Z,27.50
2018-08-07T22:13:55.191Z,27.50
2018-08-07T22:16:23.522Z,27.50
2018-08-07T22:18:51.866Z,27.50
2018-08-07T22:21:20.179Z,27.40
2018-08-07T22:23:48.632Z,27.40
2018-08-07T22:26:17.009Z,27.40
2018-08-07T22:28:45.400Z,27.40
2018-08-07T22:31:13.677Z,27.40
2018-08-07T22:33:42.180Z,27.30
2018-08-07T22:36:10.507Z,27.30
2018-08-07T22:38:38.791Z,27.30
2018-08-07T22:41:07.224Z,27.30
2018-08-07T22:43:35.616Z,27.30
2018-08-07T22:46:03.870Z,27.20
2018-08-07T22:48:32.626Z,27.10
2018-08-07T22:51:00.860Z,27.00
2018-08-07T22:53:29.173Z,26.90
2018-08-07T22:55:57.460Z,26.90
2018-08-07T22:58:25.690Z,27.00
2018-08-07T23:00:53.964Z,27.10
2018-08-07T23:03:22.299Z,27.10
2018-08-07T23:05:50.589Z,27.20
2018-08-07T23:08:18.869Z,27.10
2018-08-07T23:10:47.144Z,26.90
2018-08-07T23:13:15.428Z,26.70
2018-08-07T23:15:43.897Z,26.40
2018-08-07T23:18:12.193Z,26.30
2018-08-07T23:20:40.433Z,26.00
2018-08-07T23:23:08.749Z,25.80
2018-08-07T23:25:38.170Z,25.60
2018-08-07T23:28:06.480Z,25.50
2018-08-07T23:30:34.841Z,25.40
2018-08-07T23:33:03.326Z,25.30
2018-08-07T23:35:31.789Z,25.20
2018-08-07T23:38:00.187Z,25.20
2018-08-07T23:40:28.506Z,25.10
2018-08-07T23:42:56.866Z,25.10
2018-08-07T23:45:25.308Z,24.90
2018-08-07T23:47:53.656Z,24.90
2018-08-07T23:50:22.143Z,24.80
2018-08-07T23:52:50.484Z,24.70
2018-08-07T23:55:19.001Z,24.60
2018-08-07T23:57:47.426Z,24.50
